createdAt,value
2018-12-14T00:00:09.794Z,69.04
2018-12-14T00:01:09.726Z,69.35
2018-12-14T00:02:09.714Z,69.35
2018-12-14T00:03:09.704Z,68.42
2018-12-14T00:04:09.691Z,68.73
2018-12-14T00:05:09.683Z,67.27
2018-12-14T00:06:09.726Z,68.63
2018-12-14T00:07:09.658Z,68.10
2018-12-14T00:08:09.647Z,68.00
2018-12-14T00:09:09.635Z,69.15
2018-12-14T00:10:09.624Z,68.32
2018-12-14T00:11:09.636Z,68.42
2018-12-14T00:12:09.612Z,68.73
2018-12-14T00:13:09.593Z,69.46
2018-12-14T00:14:09.580Z,69.25
2018-12-14T00:15:09.571Z,67.48
2018-12-14T00:16:09.581Z,67.48
2018-12-14T00:17:09.550Z,66.86
2018-12-14T00:18:09.563Z,68.10
2018-12-14T00:19:09.525Z,68.73
2018-12-14T00:20:09.515Z,69.56
2018-12-14T00:21:09.528Z,68.84
2018-12-14T00:22:09.491Z,69.22
2018-12-14T00:23:09.479Z,68.10
2018-12-14T00:24:09.491Z,69.01
2018-12-14T00:25:09.460Z,69.22
2018-12-14T00:26:09.469Z,67.90
2018-12-14T00:27:09.437Z,67.66
2018-12-14T00:28:09.424Z,66.54
2018-12-14T00:29:09.416Z,69.98
2018-12-14T00:30:09.430Z,68.73
2018-12-14T00:31:09.422Z,69.67
2018-12-14T00:32:09.381Z,69.64
2018-12-14T00:33:09.371Z,67.27
2018-12-14T00:34:09.362Z,66.96
2018-12-14T00:35:09.348Z,67.27
2018-12-14T00:36:09.357Z,67.27
2018-12-14T00:37:09.354Z,70.71
2018-12-14T00:38:09.316Z,70.57
2018-12-14T00:39:09.310Z,67.48
2018-12-14T00:40:09.299Z,69.35
2018-12-14T00:41:09.284Z,65.92
2018-12-14T00:42:09.309Z,70.19
2018-12-14T00:43:09.261Z,66.86
2018-12-14T00:44:09.254Z,67.69
2018-12-14T00:45:09.261Z,69.38
2018-12-14T00:46:09.229Z,72.06
2018-12-14T00:47:09.241Z,70.71
2018-12-14T00:48:09.215Z,68.70
2018-12-14T00:49:09.194Z,69.46
2018-12-14T00:50:09.185Z,70.40
2018-12-14T00:51:09.174Z,70.36
2018-12-14T00:52:09.190Z,69.84
2018-12-14T00:53:09.151Z,70.36
2018-12-14T00:54:09.176Z,69.12
2018-12-14T00:55:09.131Z,68.38
2018-12-14T00:56:09.117Z,69.22
2018-12-14T00:57:09.140Z,69.25
2018-12-14T00:58:09.101Z,68.18
2018-12-14T00:59:09.084Z,67.90
2018-12-14T01:00:09.093Z,68.63
2018-12-14T01:01:09.062Z,69.04
2018-12-14T01:02:09.053Z,69.35
2018-12-14T01:03:09.064Z,68.42
2018-12-14T01:04:09.031Z,70.92
2018-12-14T01:05:09.026Z,71.23
2018-12-14T01:06:09.047Z,69.67
2018-12-14T01:07:08.999Z,69.87
2018-12-14T01:08:09.013Z,70.61
2018-12-14T01:09:08.976Z,69.25
2018-12-14T01:10:08.965Z,68.10
2018-12-14T01:11:08.957Z,69.56
2018-12-14T01:12:09.000Z,69.77
2018-12-14T01:13:08.953Z,68.00
2018-12-14T01:14:08.924Z,69.91
2018-12-14T01:15:08.914Z,69.77
2018-12-14T01:16:08.899Z,69.77
2018-12-14T01:17:08.892Z,69.35
2018-12-14T01:18:08.917Z,69.64
2018-12-14T01:19:08.868Z,69.56
2018-12-14T01:20:08.853Z,68.73
2018-12-14T01:21:08.843Z,69.56
2018-12-14T01:22:08.832Z,69.25
2018-12-14T01:23:08.850Z,69.15
2018-12-14T01:24:08.840Z,69.56
2018-12-14T01:25:08.822Z,69.67
2018-12-14T01:26:08.790Z,69.98
2018-12-14T01:27:08.781Z,70.92
2018-12-14T01:28:08.802Z,68.94
2018-12-14T01:29:08.778Z,69.28
2018-12-14T01:30:08.795Z,69.87
2018-12-14T01:31:08.740Z,70.29
2018-12-14T01:32:08.726Z,70.61
2018-12-14T01:33:08.718Z,70.09
2018-12-14T01:34:08.726Z,69.22
2018-12-14T01:35:08.693Z,69.35
2018-12-14T01:36:08.698Z,70.01
2018-12-14T01:37:08.671Z,69.67
2018-12-14T01:38:08.658Z,70.22
2018-12-14T01:39:08.672Z,69.46
2018-12-14T01:40:08.640Z,69.98
2018-12-14T01:41:08.632Z,69.07
2018-12-14T01:42:08.632Z,69.25
2018-12-14T01:43:08.603Z,68.45
2018-12-14T01:44:08.617Z,69.38
2018-12-14T01:45:08.582Z,69.38
2018-12-14T01:46:08.570Z,70.01
2018-12-14T01:47:08.558Z,70.01
2018-12-14T01:48:08.562Z,69.28
2018-12-14T01:49:08.558Z,69.91
2018-12-14T01:50:08.529Z,69.67
2018-12-14T01:51:08.516Z,70.01
2018-12-14T01:52:08.505Z,69.49
2018-12-14T01:53:08.494Z,69.49
2018-12-14T01:54:08.534Z,69.91
2018-12-14T01:55:08.470Z,70.22
2018-12-14T01:56:08.461Z,68.03
2018-12-14T01:57:08.449Z,69.38
2018-12-14T01:58:08.440Z,69.81
2018-12-14T01:59:08.450Z,68.35
2018-12-14T02:00:08.424Z,68.66
2018-12-14T02:01:08.410Z,69.81
2018-12-14T02:02:08.394Z,68.59
2018-12-14T02:03:08.387Z,67.75
2018-12-14T02:04:08.396Z,68.76
2018-12-14T02:05:08.361Z,69.28
2018-12-14T02:06:08.378Z,66.89
2018-12-14T02:07:08.341Z,69.73
2018-12-14T02:08:08.328Z,69.70
2018-12-14T02:09:08.340Z,69.70
2018-12-14T02:10:08.314Z,69.63
2018-12-14T02:11:08.296Z,69.81
2018-12-14T02:12:11.196Z,70.19
2018-12-14T02:13:08.286Z,69.81
2018-12-14T02:14:08.290Z,67.58
2018-12-14T02:15:08.251Z,68.24
2018-12-14T02:16:08.250Z,68.24
2018-12-14T02:17:08.229Z,67.82
2018-12-14T02:18:08.222Z,67.82
2018-12-14T02:19:08.227Z,64.94
2018-12-14T02:20:08.222Z,66.19
2018-12-14T02:21:08.188Z,66.11
2018-12-14T02:22:08.178Z,66.42
2018-12-14T02:23:08.165Z,67.16
2018-12-14T02:24:08.154Z,67.19
2018-12-14T02:25:08.195Z,66.53
2018-12-14T02:26:08.148Z,65.52
2018-12-14T02:27:08.120Z,66.53
2018-12-14T02:28:08.127Z,64.79
2018-12-14T02:29:08.098Z,66.04
2018-12-14T02:30:08.116Z,69.38
2018-12-14T02:31:08.077Z,67.16
2018-12-14T02:32:08.076Z,67.47
2018-12-14T02:33:08.056Z,66.01
2018-12-14T02:34:08.046Z,65.59
2018-12-14T02:35:08.067Z,67.78
2018-12-14T02:36:08.023Z,67.16
2018-12-14T02:37:08.016Z,67.05
2018-12-14T02:38:08.012Z,66.32
2018-12-14T02:39:07.990Z,65.48
2018-12-14T02:40:07.979Z,66.01
2018-12-14T02:41:07.990Z,65.91
2018-12-14T02:42:07.956Z,66.22
2018-12-14T02:43:07.946Z,64.47
2018-12-14T02:44:07.944Z,64.47
2018-12-14T02:45:07.923Z,64.97
2018-12-14T02:46:07.942Z,64.97
2018-12-14T02:47:07.901Z,64.65
2018-12-14T02:48:07.889Z,64.55
2018-12-14T02:49:07.878Z,66.32
2018-12-14T02:50:07.881Z,66.29
2018-12-14T02:51:07.881Z,66.39
2018-12-14T02:52:07.853Z,65.67
2018-12-14T02:53:07.834Z,64.52
2018-12-14T02:54:07.827Z,66.50
2018-12-14T02:55:07.819Z,65.04
2018-12-14T02:56:07.851Z,64.83
2018-12-14T02:57:07.797Z,65.46
2018-12-14T02:58:07.779Z,65.46
2018-12-14T02:59:07.769Z,66.19
2018-12-14T03:00:07.762Z,66.92
2018-12-14T03:01:07.767Z,68.03
2018-12-14T03:02:07.787Z,66.29
2018-12-14T03:03:07.732Z,67.02
2018-12-14T03:04:07.717Z,67.10
2018-12-14T03:05:07.704Z,66.50
2018-12-14T03:06:07.692Z,64.94
2018-12-14T03:07:07.706Z,63.68
2018-12-14T03:08:07.683Z,63.89
2018-12-14T03:09:07.665Z,64.76
2018-12-14T03:10:07.648Z,64.86
2018-12-14T03:11:07.640Z,64.55
2018-12-14T03:12:07.653Z,64.62
2018-12-14T03:13:07.629Z,62.67
2018-12-14T03:14:07.638Z,63.20
2018-12-14T03:15:07.613Z,63.43
2018-12-14T03:16:07.584Z,64.47
2018-12-14T03:17:07.600Z,66.32
2018-12-14T03:18:07.563Z,64.45
2018-12-14T03:19:07.553Z,66.42
2018-12-14T03:20:07.566Z,66.53
2018-12-14T03:21:07.529Z,65.77
2018-12-14T03:22:07.547Z,64.52
2018-12-14T03:23:07.513Z,66.19
2018-12-14T03:24:07.499Z,64.83
2018-12-14T03:25:07.491Z,66.19
2018-12-14T03:26:07.495Z,65.98
2018-12-14T03:27:07.466Z,66.60
2018-12-14T03:28:07.522Z,67.02
2018-12-14T03:29:07.447Z,66.99
2018-12-14T03:30:07.433Z,66.89
2018-12-14T03:31:07.422Z,64.42
2018-12-14T03:32:07.424Z,65.04
2018-12-14T03:33:07.425Z,67.54
2018-12-14T03:34:07.389Z,63.20
2018-12-14T03:35:07.378Z,65.07
2018-12-14T03:36:07.378Z,65.48
2018-12-14T03:37:07.358Z,66.11
2018-12-14T03:38:07.376Z,65.88
2018-12-14T03:39:07.334Z,64.03
2018-12-14T03:40:07.342Z,64.52
2018-12-14T03:41:07.312Z,64.94
2018-12-14T03:42:07.302Z,66.22
2018-12-14T03:43:07.324Z,63.82
2018-12-14T03:44:07.300Z,64.65
2018-12-14T03:45:07.270Z,65.83
2018-12-14T03:46:07.262Z,66.01
2018-12-14T03:47:07.251Z,65.91
2018-12-14T03:48:07.259Z,67.57
2018-12-14T03:49:07.225Z,66.53
2018-12-14T03:50:07.249Z,64.86
2018-12-14T03:51:07.215Z,64.55
2018-12-14T03:52:07.194Z,64.76
2018-12-14T03:53:07.300Z,64.06
2018-12-14T03:54:07.175Z,66.66
2018-12-14T03:55:07.162Z,64.89
2018-12-14T03:56:07.152Z,66.35
2018-12-14T03:57:07.158Z,66.74
2018-12-14T03:58:07.131Z,66.74
2018-12-14T03:59:07.139Z,66.32
2018-12-14T04:00:07.124Z,66.22
2018-12-14T04:01:07.103Z,64.23
2018-12-14T04:02:07.085Z,64.16
2018-12-14T04:03:07.088Z,64.58
2018-12-14T04:04:07.084Z,64.37
2018-12-14T04:05:07.055Z,65.00
2018-12-14T04:06:07.039Z,64.76
2018-12-14T04:07:07.030Z,64.97
2018-12-14T04:08:07.029Z,64.69
2018-12-14T04:09:07.037Z,65.07
2018-12-14T04:10:07.022Z,64.55
2018-12-14T04:11:06.986Z,65.17
2018-12-14T04:12:06.977Z,63.61
2018-12-14T04:13:06.961Z,64.89
2018-12-14T04:14:06.972Z,65.80
2018-12-14T04:15:06.965Z,64.86
2018-12-14T04:16:06.926Z,64.26
2018-12-14T04:17:06.994Z,64.37
2018-12-14T04:18:06.907Z,64.47
2018-12-14T04:19:06.922Z,65.62
2018-12-14T04:20:06.884Z,65.94
2018-12-14T04:21:06.871Z,64.06
2018-12-14T04:22:06.859Z,63.12
2018-12-14T04:23:06.874Z,64.69
2018-12-14T04:24:06.840Z,64.37
2018-12-14T04:25:06.852Z,65.83
2018-12-14T04:26:06.822Z,65.73
2018-12-14T04:27:06.817Z,64.37
2018-12-14T04:28:06.798Z,64.16
2018-12-14T04:29:06.794Z,64.89
2018-12-14T04:30:06.802Z,64.16
2018-12-14T04:31:06.762Z,66.25
2018-12-14T04:32:06.752Z,64.45
2018-12-14T04:33:06.739Z,64.55
2018-12-14T04:34:06.733Z,64.86
2018-12-14T04:35:06.757Z,64.86
2018-12-14T04:36:06.711Z,66.95
2018-12-14T04:37:06.710Z,64.83
2018-12-14T04:38:06.686Z,65.77
2018-12-14T04:39:06.680Z,66.08
2018-12-14T04:40:06.686Z,66.08
2018-12-14T04:41:06.690Z,66.50
2018-12-14T04:42:06.639Z,66.68
2018-12-14T04:43:06.640Z,65.14
2018-12-14T04:44:06.626Z,66.05
2018-12-14T04:45:06.634Z,66.68
2018-12-14T04:46:06.597Z,66.26
2018-12-14T04:47:06.586Z,65.74
2018-12-14T04:48:06.590Z,66.16
2018-12-14T04:49:06.565Z,64.31
2018-12-14T04:50:06.578Z,64.42
2018-12-14T04:51:06.545Z,65.25
2018-12-14T04:52:06.531Z,66.60
2018-12-14T04:53:06.521Z,68.38
2018-12-14T04:54:06.531Z,63.79
2018-12-14T04:55:06.533Z,64.23
2018-12-14T04:56:06.490Z,64.55
2018-12-14T04:57:06.475Z,64.37
2018-12-14T04:58:06.464Z,66.56
2018-12-14T04:59:06.453Z,64.86
2018-12-14T05:00:06.463Z,66.22
2018-12-14T05:01:06.459Z,66.63
2018-12-14T05:02:06.421Z,66.22
2018-12-14T05:03:06.419Z,65.80
2018-12-14T05:04:06.401Z,64.23
2018-12-14T05:05:06.387Z,64.23
2018-12-14T05:06:06.421Z,64.13
2018-12-14T05:07:06.371Z,64.23
2018-12-14T05:08:06.355Z,65.07
2018-12-14T05:09:06.345Z,64.55
2018-12-14T05:10:06.363Z,65.17
2018-12-14T05:11:06.362Z,65.07
2018-12-14T05:12:06.327Z,64.55
2018-12-14T05:13:06.304Z,66.22
2018-12-14T05:14:06.290Z,65.80
2018-12-14T05:15:06.283Z,65.17
2018-12-14T05:16:06.292Z,67.47
2018-12-14T05:17:06.259Z,64.97
2018-12-14T05:18:06.258Z,67.16
2018-12-14T05:19:06.233Z,67.16
2018-12-14T05:20:06.225Z,65.80
2018-12-14T05:21:06.241Z,66.39
2018-12-14T05:22:06.203Z,66.39
2018-12-14T05:23:06.195Z,65.25
2018-12-14T05:24:06.188Z,65.67
2018-12-14T05:25:06.204Z,64.76
2018-12-14T05:26:06.262Z,64.45
2018-12-14T05:27:06.160Z,66.29
2018-12-14T05:28:06.136Z,65.88
2018-12-14T05:29:06.128Z,67.23
2018-12-14T05:30:06.118Z,66.36
2018-12-14T05:31:06.147Z,63.65
2018-12-14T05:32:06.096Z,65.53
2018-12-14T05:33:06.093Z,67.61
2018-12-14T05:34:06.070Z,66.47
2018-12-14T05:35:06.058Z,66.16
2018-12-14T05:36:06.052Z,64.90
2018-12-14T05:37:06.060Z,64.94
2018-12-14T05:38:06.042Z,66.50
2018-12-14T05:39:06.016Z,66.08
2018-12-14T05:40:06.004Z,65.77
2018-12-14T05:41:05.992Z,65.35
2018-12-14T05:42:06.046Z,65.25
2018-12-14T05:43:05.969Z,64.34
2018-12-14T05:44:05.991Z,65.48
2018-12-14T05:45:05.951Z,62.88
2018-12-14T05:46:05.940Z,65.80
2018-12-14T05:47:05.949Z,65.83
2018-12-14T05:48:05.915Z,66.53
2018-12-14T05:49:05.910Z,64.26
2018-12-14T05:50:05.915Z,64.47
2018-12-14T05:51:05.882Z,65.00
2018-12-14T05:52:05.911Z,64.50
2018-12-14T05:53:05.861Z,66.46
2018-12-14T05:54:05.887Z,67.19
2018-12-14T05:55:05.857Z,67.40
2018-12-14T05:56:05.826Z,64.89
2018-12-14T05:57:05.870Z,66.35
2018-12-14T05:58:05.805Z,64.69
2018-12-14T05:59:05.795Z,66.46
2018-12-14T06:00:05.788Z,65.48
2018-12-14T06:01:05.772Z,66.56
2018-12-14T06:02:05.787Z,65.83
2018-12-14T06:03:05.769Z,67.40
2018-12-14T06:04:05.741Z,67.88
2018-12-14T06:05:05.729Z,66.11
2018-12-14T06:06:05.720Z,66.32
2018-12-14T06:07:05.732Z,67.68
2018-12-14T06:08:05.695Z,67.36
2018-12-14T06:09:05.700Z,68.51
2018-12-14T06:10:05.676Z,66.82
2018-12-14T06:11:05.665Z,68.41
2018-12-14T06:12:05.675Z,67.96
2018-12-14T06:13:09.043Z,68.48
2018-12-14T06:14:05.633Z,67.54
2018-12-14T06:15:05.628Z,66.39
2018-12-14T06:16:05.610Z,66.39
2018-12-14T06:17:05.626Z,65.28
2018-12-14T06:18:05.587Z,68.82
2018-12-14T06:19:05.577Z,69.63
2018-12-14T06:20:05.602Z,68.69
2018-12-14T06:21:05.569Z,67.65
2018-12-14T06:22:05.579Z,67.54
2018-12-14T06:23:05.533Z,65.95
2018-12-14T06:24:05.524Z,66.19
2018-12-14T06:25:05.533Z,69.00
2018-12-14T06:26:05.501Z,67.65
2018-12-14T06:27:05.532Z,67.20
2018-12-14T06:28:05.480Z,66.05
2018-12-14T06:29:05.481Z,67.61
2018-12-14T06:30:05.457Z,67.41
2018-12-14T06:31:05.445Z,66.99
2018-12-14T06:32:05.477Z,66.89
2018-12-14T06:33:05.464Z,68.03
2018-12-14T06:34:05.424Z,66.89
2018-12-14T06:35:05.407Z,69.81
2018-12-14T06:36:05.393Z,67.20
2018-12-14T06:37:05.386Z,67.51
2018-12-14T06:38:05.394Z,67.61
2018-12-14T06:39:05.429Z,68.03
2018-12-14T06:40:05.352Z,66.36
2018-12-14T06:41:05.338Z,67.02
2018-12-14T06:42:05.326Z,67.51
2018-12-14T06:43:05.350Z,67.72
2018-12-14T06:44:05.305Z,66.89
2018-12-14T06:45:05.317Z,67.30
2018-12-14T06:46:05.286Z,67.41
2018-12-14T06:47:05.270Z,68.76
2018-12-14T06:48:05.311Z,67.61
2018-12-14T06:49:05.251Z,67.51
2018-12-14T06:50:06.205Z,67.72
2018-12-14T06:51:06.247Z,67.82
2018-12-14T06:52:05.219Z,67.82
2018-12-14T06:53:05.231Z,66.16
2018-12-14T06:54:05.194Z,67.10
2018-12-14T06:55:05.193Z,67.51
2018-12-14T06:56:05.239Z,69.18
2018-12-14T06:57:05.164Z,67.51
2018-12-14T06:58:05.196Z,66.23
2018-12-14T06:59:05.142Z,66.26
2018-12-14T07:00:05.180Z,65.74
2018-12-14T07:01:05.119Z,66.47
2018-12-14T07:02:05.109Z,66.47
2018-12-14T07:03:05.123Z,66.50
2018-12-14T07:04:05.106Z,66.78
2018-12-14T07:05:05.078Z,66.26
2018-12-14T07:06:05.083Z,65.46
2018-12-14T07:07:05.057Z,65.35
2018-12-14T07:08:05.065Z,67.47
2018-12-14T07:09:05.481Z,70.07
2018-12-14T07:10:05.026Z,69.31
2018-12-14T07:11:05.201Z,68.07
2018-12-14T07:12:05.702Z,67.33
2018-12-14T07:13:05.010Z,66.71
2018-12-14T07:14:04.976Z,68.90
2018-12-14T07:15:04.978Z,69.21
2018-12-14T07:16:05.239Z,67.02
2018-12-14T07:17:04.986Z,67.75
2018-12-14T07:18:05.108Z,67.51
2018-12-14T07:19:04.981Z,67.82
2018-12-14T07:20:04.915Z,67.75
2018-12-14T07:21:04.928Z,68.35
2018-12-14T07:22:04.904Z,67.96
2018-12-14T07:23:04.933Z,66.82
2018-12-14T07:24:04.872Z,66.71
2018-12-14T07:25:04.874Z,66.53
2018-12-14T07:26:04.913Z,67.47
2018-12-14T07:27:04.885Z,69.13
2018-12-14T07:28:04.917Z,67.99
2018-12-14T07:29:04.883Z,67.85
2018-12-14T07:30:04.818Z,67.23
2018-12-14T07:31:04.821Z,66.92
2018-12-14T07:32:04.808Z,68.59
2018-12-14T07:33:04.868Z,68.38
2018-12-14T07:34:04.788Z,68.17
2018-12-14T07:35:04.835Z,67.82
2018-12-14T07:36:04.737Z,69.91
2018-12-14T07:37:04.734Z,69.18
2018-12-14T07:38:04.773Z,67.72
2018-12-14T07:39:04.788Z,66.16
2018-12-14T07:40:04.786Z,67.72
2018-12-14T07:41:04.691Z,67.10
2018-12-14T07:42:04.695Z,67.96
2018-12-14T07:43:04.660Z,68.55
2018-12-14T07:44:04.683Z,69.10
2018-12-14T07:45:04.692Z,69.70
2018-12-14T07:46:04.679Z,69.38
2018-12-14T07:47:04.621Z,66.89
2018-12-14T07:48:04.666Z,68.13
2018-12-14T07:49:04.620Z,67.96
2018-12-14T07:50:04.590Z,68.38
2018-12-14T07:51:04.578Z,68.27
2018-12-14T07:52:04.674Z,68.27
2018-12-14T07:53:09.155Z,70.43
2018-12-14T07:54:04.566Z,69.38
2018-12-14T07:55:04.541Z,68.45
2018-12-14T07:56:04.533Z,69.81
2018-12-14T07:57:04.517Z,69.18
2018-12-14T07:58:04.554Z,68.63
2018-12-14T07:59:04.630Z,69.35
2018-12-14T08:00:04.518Z,69.15
2018-12-14T08:01:04.479Z,67.48
2018-12-14T08:02:04.470Z,68.76
2018-12-14T08:03:04.511Z,69.87
2018-12-14T08:04:04.491Z,69.59
2018-12-14T08:05:04.506Z,69.04
2018-12-14T08:06:04.432Z,69.15
2018-12-14T08:07:04.449Z,68.03
2018-12-14T08:08:04.420Z,68.24
2018-12-14T08:09:04.467Z,67.41
2018-12-14T08:10:04.377Z,68.69
2018-12-14T08:11:04.399Z,68.76
2018-12-14T08:12:04.392Z,70.64
2018-12-14T08:13:04.337Z,70.15
2018-12-14T08:14:04.429Z,68.03
2018-12-14T08:15:04.421Z,68.66
2018-12-14T08:16:04.482Z,67.93
2018-12-14T08:17:04.287Z,68.87
2018-12-14T08:18:04.302Z,68.97
2018-12-14T08:19:04.308Z,69.42
2018-12-14T08:20:04.255Z,69.18
2018-12-14T08:21:04.246Z,68.35
2018-12-14T08:22:04.237Z,69.28
2018-12-14T08:23:04.221Z,68.03
2018-12-14T08:24:04.248Z,68.45
2018-12-14T08:25:04.206Z,70.12
2018-12-14T08:26:04.199Z,68.76
2018-12-14T08:27:04.178Z,68.45
2018-12-14T08:28:04.167Z,68.66
2018-12-14T08:29:04.181Z,70.43
2018-12-14T08:30:04.158Z,69.59
2018-12-14T08:31:04.133Z,67.82
2018-12-14T08:32:04.124Z,68.21
2018-12-14T08:33:04.116Z,68.55
2018-12-14T08:34:04.153Z,71.23
2018-12-14T08:35:04.091Z,69.28
2018-12-14T08:36:04.093Z,69.46
2018-12-14T08:37:04.069Z,70.09
2018-12-14T08:38:04.058Z,69.35
2018-12-14T08:39:04.052Z,69.35
2018-12-14T08:40:04.064Z,66.13
2018-12-14T08:41:04.026Z,68.84
2018-12-14T08:42:04.023Z,68.87
2018-12-14T08:43:04.017Z,66.26
2018-12-14T08:44:04.013Z,69.59
2018-12-14T08:45:04.010Z,68.35
2018-12-14T08:46:03.971Z,69.91
2018-12-14T08:47:03.960Z,69.07
2018-12-14T08:48:03.967Z,68.10
2018-12-14T08:49:03.942Z,69.28
2018-12-14T08:50:03.971Z,68.55
2018-12-14T08:51:03.936Z,68.03
2018-12-14T08:52:03.910Z,66.26
2018-12-14T08:53:03.899Z,69.81
2018-12-14T08:54:04.003Z,69.91
2018-12-14T08:55:03.909Z,70.12
2018-12-14T08:56:03.959Z,70.12
2018-12-14T08:57:03.942Z,69.77
2018-12-14T08:58:03.878Z,68.42
2018-12-14T08:59:03.890Z,67.48
2018-12-14T09:00:04.108Z,68.73
2018-12-14T09:01:03.834Z,68.24
2018-12-14T09:02:03.807Z,69.56
2018-12-14T09:03:03.798Z,66.99
2018-12-14T09:04:03.787Z,68.87
2018-12-14T09:05:03.816Z,67.41
2018-12-14T09:06:03.823Z,66.60
2018-12-14T09:07:03.774Z,67.65
2018-12-14T09:08:05.022Z,70.01
2018-12-14T09:09:03.744Z,66.89
2018-12-14T09:10:03.766Z,68.35
2018-12-14T09:11:03.758Z,68.03
2018-12-14T09:12:03.720Z,68.35
2018-12-14T09:13:04.253Z,67.51
2018-12-14T09:14:03.799Z,68.55
2018-12-14T09:15:03.875Z,67.51
2018-12-14T09:16:03.817Z,68.45
2018-12-14T09:17:03.680Z,69.67
2018-12-14T09:18:03.639Z,69.15
2018-12-14T09:19:03.695Z,68.21
2018-12-14T09:20:03.861Z,67.51
2018-12-14T09:21:04.655Z,67.20
2018-12-14T09:22:03.676Z,68.35
2018-12-14T09:23:04.219Z,69.56
2018-12-14T09:24:03.799Z,67.58
2018-12-14T09:25:03.818Z,67.61
2018-12-14T09:26:03.545Z,67.30
2018-12-14T09:27:03.565Z,68.24
2018-12-14T09:28:03.718Z,68.35
2018-12-14T09:29:03.889Z,70.09
2018-12-14T09:30:03.738Z,70.09
2018-12-14T09:31:03.485Z,68.42
2018-12-14T09:32:03.475Z,68.00
2018-12-14T09:33:03.642Z,69.15
2018-12-14T09:34:03.448Z,68.00
2018-12-14T09:35:03.469Z,67.27
2018-12-14T09:36:03.451Z,68.63
2018-12-14T09:37:03.440Z,68.87
2018-12-14T09:38:03.418Z,68.00
2018-12-14T09:39:03.420Z,67.27
2018-12-14T09:40:03.403Z,68.00
2018-12-14T09:41:03.469Z,67.90
2018-12-14T09:42:03.364Z,69.28
2018-12-14T09:43:03.380Z,68.63
2018-12-14T09:44:03.375Z,67.17
2018-12-14T09:45:03.351Z,66.78
2018-12-14T09:46:03.362Z,69.81
2018-12-14T09:47:03.309Z,68.00
2018-12-14T09:48:03.313Z,68.52
2018-12-14T09:49:03.310Z,68.94
2018-12-14T09:50:03.289Z,68.73
2018-12-14T09:51:03.315Z,68.70
2018-12-14T09:52:03.268Z,67.17
2018-12-14T09:53:03.267Z,68.84
2018-12-14T09:54:03.274Z,68.07
2018-12-14T09:55:03.234Z,67.79
2018-12-14T09:56:03.266Z,68.66
2018-12-14T09:57:03.227Z,67.65
2018-12-14T09:58:03.189Z,68.59
2018-12-14T09:59:03.209Z,70.43
2018-12-14T10:00:03.222Z,70.12
2018-12-14T10:01:03.190Z,68.35
2018-12-14T10:02:03.189Z,68.45
2018-12-14T10:03:03.141Z,69.91
2018-12-14T10:04:03.139Z,69.38
2018-12-14T10:05:03.133Z,70.43
2018-12-14T10:06:03.165Z,70.43
2018-12-14T10:07:03.157Z,70.40
2018-12-14T10:08:03.105Z,71.86
2018-12-14T10:09:03.079Z,69.95
2018-12-14T10:10:03.065Z,67.97
2018-12-14T10:11:03.125Z,68.42
2018-12-14T10:12:03.055Z,70.50
2018-12-14T10:13:03.075Z,69.84
2018-12-14T10:14:03.014Z,68.60
2018-12-14T10:15:03.082Z,68.49
2018-12-14T10:16:03.042Z,68.18
2018-12-14T10:17:02.983Z,68.77
2018-12-14T10:18:03.020Z,67.42
2018-12-14T10:19:02.957Z,67.32
2018-12-14T10:20:03.070Z,67.21
2018-12-14T10:21:02.960Z,65.99
2018-12-14T10:22:02.932Z,66.09
2018-12-14T10:23:02.916Z,68.84
2018-12-14T10:24:02.907Z,68.77
2018-12-14T10:25:02.893Z,68.01
2018-12-14T10:26:02.925Z,66.35
2018-12-14T10:27:02.876Z,68.32
2018-12-14T10:28:02.861Z,66.45
2018-12-14T10:29:02.852Z,66.24
2018-12-14T10:30:02.839Z,66.45
2018-12-14T10:31:02.994Z,67.32
2018-12-14T10:32:03.074Z,66.03
2018-12-14T10:33:02.822Z,66.77
2018-12-14T10:34:02.798Z,66.87
2018-12-14T10:35:02.839Z,64.65
2018-12-14T10:36:02.787Z,65.69
2018-12-14T10:37:02.788Z,65.62
2018-12-14T10:38:02.751Z,67.29
2018-12-14T10:39:02.782Z,66.56
2018-12-14T10:40:02.729Z,66.77
2018-12-14T10:41:02.717Z,66.03
2018-12-14T10:42:02.737Z,66.14
2018-12-14T10:43:02.699Z,65.65
2018-12-14T10:44:07.385Z,67.29
2018-12-14T10:45:03.792Z,68.53
2018-12-14T10:46:02.663Z,66.87
2018-12-14T10:47:02.766Z,66.66
2018-12-14T10:48:02.698Z,66.24
2018-12-14T10:49:02.655Z,64.79
2018-12-14T10:50:02.625Z,64.72
2018-12-14T10:51:02.607Z,66.38
2018-12-14T10:52:02.748Z,67.52
2018-12-14T10:53:02.656Z,66.48
2018-12-14T10:54:02.619Z,64.27
2018-12-14T10:55:02.770Z,66.03
2018-12-14T10:56:02.589Z,66.80
2018-12-14T10:57:02.660Z,66.56
2018-12-14T10:58:02.599Z,65.72
2018-12-14T10:59:02.565Z,65.72
2018-12-14T11:00:02.891Z,66.45
2018-12-14T11:01:02.499Z,66.56
2018-12-14T11:02:03.324Z,65.93
2018-12-14T11:03:02.549Z,64.55
2018-12-14T11:04:02.529Z,65.20
2018-12-14T11:05:02.630Z,64.24
2018-12-14T11:06:02.471Z,65.72
2018-12-14T11:07:02.668Z,65.69
2018-12-14T11:08:02.594Z,66.31
2018-12-14T11:09:02.523Z,64.03
2018-12-14T11:10:02.507Z,65.59
2018-12-14T11:11:02.510Z,64.86
2018-12-14T11:12:02.565Z,64.79
2018-12-14T11:13:02.572Z,67.05
2018-12-14T11:14:02.516Z,64.45
2018-12-14T11:15:02.571Z,66.03
2018-12-14T11:16:02.427Z,64.97
2018-12-14T11:17:02.346Z,64.34
2018-12-14T11:18:02.312Z,64.45
2018-12-14T11:19:02.340Z,65.10
2018-12-14T11:20:02.285Z,64.48
2018-12-14T11:21:02.278Z,64.17
2018-12-14T11:22:02.330Z,65.62
2018-12-14T11:23:02.253Z,66.94
2018-12-14T11:24:02.239Z,66.94
2018-12-14T11:25:02.237Z,65.59
2018-12-14T11:26:02.222Z,65.69
2018-12-14T11:27:02.366Z,64.55
2018-12-14T11:28:02.240Z,63.85
2018-12-14T11:29:02.186Z,65.31
2018-12-14T11:30:02.176Z,64.37
2018-12-14T11:31:02.162Z,65.28
2018-12-14T11:32:02.196Z,63.93
2018-12-14T11:33:02.150Z,63.20
2018-12-14T11:34:02.147Z,65.69
2018-12-14T11:35:02.119Z,64.55
2018-12-14T11:36:02.108Z,64.06
2018-12-14T11:37:02.097Z,64.97
2018-12-14T11:38:02.111Z,62.99
2018-12-14T11:39:02.076Z,64.69
2018-12-14T11:40:02.085Z,64.97
2018-12-14T11:41:02.053Z,66.94
2018-12-14T11:42:02.040Z,65.17
2018-12-14T11:43:02.054Z,64.94
2018-12-14T11:44:02.018Z,64.86
2018-12-14T11:45:02.009Z,62.88
2018-12-14T11:46:02.027Z,64.45
2018-12-14T11:47:01.990Z,64.06
2018-12-14T11:48:02.006Z,64.79
2018-12-14T11:49:01.972Z,64.27
2018-12-14T11:50:01.956Z,63.85
2018-12-14T11:51:01.941Z,63.02
2018-12-14T11:52:01.950Z,64.48
2018-12-14T11:53:01.945Z,63.93
2018-12-14T11:54:01.916Z,63.41
2018-12-14T11:55:01.896Z,64.69
2018-12-14T11:56:01.891Z,64.58
2018-12-14T11:57:01.881Z,63.96
2018-12-14T11:58:02.318Z,65.31
2018-12-14T11:59:01.868Z,64.76
2018-12-14T12:00:01.844Z,66.00
2018-12-14T12:01:01.828Z,63.93
2018-12-14T12:02:01.822Z,64.14
2018-12-14T12:03:01.841Z,64.34
2018-12-14T12:04:01.844Z,63.54
2018-12-14T12:05:01.789Z,63.82
2018-12-14T12:06:01.794Z,63.33
2018-12-14T12:07:01.773Z,63.98
2018-12-14T12:08:01.805Z,65.23
2018-12-14T12:09:01.752Z,64.69
2018-12-14T12:10:01.784Z,64.17
2018-12-14T12:11:01.720Z,64.17
2018-12-14T12:12:01.714Z,66.69
2018-12-14T12:13:01.754Z,64.89
2018-12-14T12:14:01.688Z,64.79
2018-12-14T12:15:01.678Z,63.96
2018-12-14T12:16:01.696Z,64.58
2018-12-14T12:17:01.652Z,65.72
2018-12-14T12:18:01.666Z,64.97
2018-12-14T12:19:01.643Z,64.65
2018-12-14T12:20:01.618Z,64.03
2018-12-14T12:21:01.609Z,63.96
2018-12-14T12:22:01.623Z,64.37
2018-12-14T12:23:01.624Z,66.14
2018-12-14T12:24:01.575Z,65.10
2018-12-14T12:25:01.565Z,64.48
2018-12-14T12:26:01.553Z,64.29
2018-12-14T12:27:01.542Z,64.29
2018-12-14T12:28:01.557Z,66.69
2018-12-14T12:29:01.547Z,62.63
2018-12-14T12:30:01.526Z,62.74
2018-12-14T12:31:01.498Z,63.91
2018-12-14T12:32:01.485Z,64.53
2018-12-14T12:33:01.475Z,62.45
2018-12-14T12:34:01.501Z,61.52
2018-12-14T12:35:01.473Z,62.38
2018-12-14T12:36:01.454Z,64.01
2018-12-14T12:37:01.430Z,63.08
2018-12-14T12:38:01.423Z,64.51
2018-12-14T12:39:01.434Z,62.81
2018-12-14T12:40:01.413Z,63.05
2018-12-14T12:41:01.398Z,63.43
2018-12-14T12:42:01.381Z,63.36
2018-12-14T12:43:01.364Z,64.06
2018-12-14T12:44:01.377Z,63.64
2018-12-14T12:45:01.340Z,63.75
2018-12-14T12:46:01.333Z,64.37
2018-12-14T12:47:01.318Z,60.73
2018-12-14T12:48:01.309Z,63.12
2018-12-14T12:49:01.329Z,63.15
2018-12-14T12:50:01.293Z,63.05
2018-12-14T12:51:03.333Z,64.72
2018-12-14T12:52:01.266Z,62.81